< < Back
Terminal Aerodrome Forecast


Current Version              Previous Versions:   1  2  3  4  5  6  7  8  9  

Terminal Aerodrome Forecast

070
FTUS44 KBMX 222300
TAFMGM
TAF
KMGM 222330Z 2300/2324 00000KT P6SM SKC
     FM231400 31006KT P6SM SCT050=

Latest METAR

598
SAUS80 KWBC 230900 RRA
MTRMGM
METAR KMGM 230853Z AUTO 00000KT 10SM CLR 26/22 A2998 RMK AO2 SLP147
T02560222 56008


USA.gov is the U.S. government's official web portal to all federal, state and local government web resources and services.